Lawrence Municipal Airport Lawrence US
ICAO: KLWM
IATA: LWM
Category: Medium
Scheduled Services: No

Elevation: 148 ft
TransAlt. 18000 ft.

Airport Communications:
BOSTON APP/DEP:124.4
ASOS:126.75
ATIS:126.75
CLNC DEL:124.3
CTAF:119.25
GND:124.3
BRIDGEPORT RDO:112.5
TWR:119.25
UNICOM:122.8

KLWM Zoom In..

If you have problems with the map follow the link
https://www.worldairports.se/pages/airport.php?
ICAO=KLWM

Runways:

(A) RW 05 length 5001 ft width 150 ft
ILS 111.70 / hdg 53

(B) RW 14 length 3900 ft width 100 ft
---- / hdg 137

(C) RW 23 length 5001 ft width 150 ft
---- / hdg 233

(D) RW 32 length 3900 ft width 100 ft
---- / hdg 317

Location; KLWM
Day. 19 / Time. 02.54 Zulu
* Altimeter: 29.92
* Temperature: -08° c. -17.6°f.
* Wind from: 030° Speed 04 kn.
Dewpoint: -09° c.
Visibility: 1/4 Statute Miles.
Conditions: Heavy Snow.Conditions: Freezing fog.

KLWM 190254Z 03004KT 1/4SM +SN FZFG VV005 M08/M09 A2992 RMK AO2 SLP135 P0009 60021 T10781094 58046


Wind From 030°
Speed 04 kn.

 
 
jpsmedia worldairports.se 2020   terms of use